createdAt,value
2022-07-27T00:01:14.434Z,100.00
2022-07-27T00:03:43.835Z,100.00
2022-07-27T00:06:11.637Z,100.00
2022-07-27T00:08:39.598Z,100.00
2022-07-27T00:11:10.511Z,100.00
2022-07-27T00:13:38.906Z,100.00
2022-07-27T00:16:07.226Z,100.00
2022-07-27T00:18:35.502Z,100.00
2022-07-27T00:21:03.178Z,100.00
2022-07-27T00:23:30.915Z,100.00
2022-07-27T00:25:58.876Z,100.00
2022-07-27T00:28:26.595Z,100.00
2022-07-27T00:30:54.313Z,100.00
2022-07-27T00:33:22.169Z,100.00
2022-07-27T00:35:50.042Z,100.00
2022-07-27T00:38:17.705Z,100.00
2022-07-27T00:40:45.562Z,100.00
2022-07-27T00:43:13.410Z,100.00
2022-07-27T00:45:41.759Z,100.00
2022-07-27T00:48:09.813Z,100.00
2022-07-27T00:50:41.397Z,100.00
2022-07-27T00:53:09.964Z,100.00
2022-07-27T00:55:39.856Z,100.00
2022-07-27T00:58:11.531Z,100.00
2022-07-27T01:00:39.878Z,100.00
2022-07-27T01:03:09.418Z,100.00
2022-07-27T01:05:42.644Z,100.00
2022-07-27T01:08:12.749Z,100.00
2022-07-27T01:10:41.683Z,100.00
2022-07-27T01:13:12.665Z,100.00
2022-07-27T01:15:42.832Z,100.00
2022-07-27T01:18:31.043Z,100.00
2022-07-27T01:21:00.864Z,100.00
2022-07-27T01:23:29.574Z,100.00
2022-07-27T01:25:57.246Z,100.00
2022-07-27T01:28:25.243Z,100.00
2022-07-27T01:30:53.384Z,100.00
2022-07-27T01:33:26.060Z,100.00
2022-07-27T01:35:56.310Z,100.00
2022-07-27T01:38:24.517Z,100.00
2022-07-27T01:40:53.722Z,100.00
2022-07-27T01:43:22.937Z,100.00
2022-07-27T01:45:50.725Z,100.00
2022-07-27T01:48:19.554Z,100.00
2022-07-27T01:50:48.030Z,100.00
2022-07-27T01:53:15.815Z,100.00
2022-07-27T01:55:43.745Z,100.00
2022-07-27T01:58:12.222Z,100.00
2022-07-27T02:00:40.684Z,100.00
2022-07-27T02:03:10.442Z,100.00
2022-07-27T02:05:39.904Z,100.00
2022-07-27T02:08:08.416Z,100.00
2022-07-27T02:10:58.607Z,100.00
2022-07-27T02:13:26.973Z,100.00
2022-07-27T02:15:55.107Z,100.00
2022-07-27T02:18:32.820Z,100.00
2022-07-27T02:21:05.359Z,100.00
2022-07-27T02:23:34.325Z,100.00
2022-07-27T02:26:03.023Z,100.00
2022-07-27T02:28:30.919Z,100.00
2022-07-27T02:30:58.653Z,100.00
2022-07-27T02:33:26.507Z,100.00
2022-07-27T02:35:54.382Z,100.00
2022-07-27T02:38:22.136Z,100.00
2022-07-27T02:40:49.808Z,100.00
2022-07-27T02:43:17.698Z,100.00
2022-07-27T02:45:46.475Z,100.00
2022-07-27T02:48:14.686Z,100.00
2022-07-27T02:50:42.588Z,100.00
2022-07-27T02:53:10.373Z,100.00
2022-07-27T02:55:38.058Z,100.00
2022-07-27T02:58:05.953Z,100.00
2022-07-27T03:00:34.323Z,100.00
2022-07-27T03:03:02.280Z,100.00
2022-07-27T03:05:30.307Z,100.00
2022-07-27T03:07:58.062Z,100.00
2022-07-27T03:10:25.899Z,100.00
2022-07-27T03:12:53.884Z,100.00
2022-07-27T03:15:21.693Z,100.00
2022-07-27T03:17:49.395Z,100.00
2022-07-27T03:20:17.271Z,100.00
2022-07-27T03:22:44.994Z,100.00
2022-07-27T03:25:13.021Z,100.00
2022-07-27T03:27:40.969Z,100.00
2022-07-27T03:30:09.293Z,100.00
2022-07-27T03:32:37.089Z,100.00
2022-07-27T03:35:05.629Z,100.00
2022-07-27T03:37:33.774Z,100.00
2022-07-27T03:40:01.591Z,100.00
2022-07-27T03:42:29.717Z,100.00
2022-07-27T03:44:57.375Z,100.00
2022-07-27T03:47:25.105Z,100.00
2022-07-27T03:49:53.054Z,100.00
2022-07-27T03:52:21.195Z,100.00
2022-07-27T03:54:49.143Z,100.00
2022-07-27T03:57:17.068Z,100.00
2022-07-27T03:59:44.783Z,100.00
2022-07-27T04:02:12.613Z,100.00
2022-07-27T04:04:40.562Z,100.00
2022-07-27T04:07:09.101Z,100.00
2022-07-27T04:09:37.667Z,100.00
2022-07-27T04:12:07.633Z,100.00
2022-07-27T04:14:35.336Z,100.00
2022-07-27T04:17:03.309Z,100.00
2022-07-27T04:19:31.533Z,100.00
2022-07-27T04:21:59.536Z,100.00
2022-07-27T04:24:27.226Z,100.00
2022-07-27T04:26:55.103Z,100.00
2022-07-27T04:29:23.415Z,100.00
2022-07-27T04:31:51.353Z,100.00
2022-07-27T04:34:20.688Z,100.00
2022-07-27T04:36:49.944Z,100.00
2022-07-27T04:39:17.679Z,100.00
2022-07-27T04:41:45.831Z,100.00
2022-07-27T04:44:13.763Z,98.87
2022-07-27T04:46:41.559Z,97.25
2022-07-27T04:49:10.075Z,96.79
2022-07-27T04:51:38.019Z,96.21
2022-07-27T04:54:05.810Z,96.18
2022-07-27T04:56:33.761Z,96.76
2022-07-27T04:59:01.560Z,95.89
2022-07-27T05:01:34.714Z,95.83
2022-07-27T05:04:05.222Z,95.90
2022-07-27T05:06:33.549Z,94.92
2022-07-27T05:09:01.296Z,92.63
2022-07-27T05:11:29.347Z,91.30
2022-07-27T05:13:57.174Z,87.28
2022-07-27T05:16:28.776Z,85.54
2022-07-27T05:18:57.595Z,84.63
2022-07-27T05:21:25.904Z,83.77
2022-07-27T05:23:54.039Z,84.05
2022-07-27T05:26:23.190Z,83.93
2022-07-27T05:28:51.432Z,84.06
2022-07-27T05:31:19.230Z,84.10
2022-07-27T05:33:49.286Z,83.33
2022-07-27T05:36:18.572Z,83.17
2022-07-27T05:38:46.343Z,82.86
2022-07-27T05:41:14.275Z,82.53
2022-07-27T05:43:41.968Z,82.88
2022-07-27T05:46:09.715Z,80.17
2022-07-27T05:48:37.771Z,79.46
2022-07-27T05:51:05.531Z,78.67
2022-07-27T05:53:34.209Z,78.72
2022-07-27T05:56:02.104Z,78.27
2022-07-27T05:58:30.141Z,79.31
2022-07-27T06:00:59.038Z,79.07
2022-07-27T06:03:27.433Z,79.13
2022-07-27T06:06:15.159Z,77.87
2022-07-27T06:08:43.052Z,76.72
2022-07-27T06:11:11.139Z,77.07
2022-07-27T06:13:41.816Z,76.20
2022-07-27T06:16:10.906Z,75.89
2022-07-27T06:18:38.654Z,75.05
2022-07-27T06:21:06.658Z,73.59
2022-07-27T06:23:34.591Z,72.18
2022-07-27T06:26:02.283Z,70.32
2022-07-27T06:28:30.279Z,68.83
2022-07-27T06:30:58.411Z,68.00
2022-07-27T06:33:30.826Z,67.30
2022-07-27T06:36:00.255Z,66.61
2022-07-27T06:38:30.094Z,65.56
2022-07-27T06:40:58.339Z,64.70
2022-07-27T06:43:31.065Z,62.79
2022-07-27T06:45:59.474Z,62.15
2022-07-27T06:48:27.741Z,61.09
2022-07-27T06:50:56.294Z,61.41
2022-07-27T06:53:25.080Z,60.21
2022-07-27T06:55:53.644Z,58.74
2022-07-27T06:58:23.853Z,58.36
2022-07-27T07:00:51.663Z,56.62
2022-07-27T07:03:19.661Z,57.23
2022-07-27T07:05:47.805Z,56.06
2022-07-27T07:08:15.672Z,54.84
2022-07-27T07:10:45.162Z,53.15
2022-07-27T07:13:13.033Z,51.95
2022-07-27T07:15:42.261Z,50.37
2022-07-27T07:18:11.611Z,49.91
2022-07-27T07:20:39.958Z,48.37
2022-07-27T07:23:09.087Z,46.69
2022-07-27T07:25:37.714Z,44.96
2022-07-27T07:28:07.111Z,41.37
2022-07-27T07:30:35.271Z,37.18
2022-07-27T07:33:03.721Z,34.07
2022-07-27T07:35:32.431Z,29.65
2022-07-27T07:38:00.376Z,26.72
2022-07-27T07:40:44.947Z,23.88
2022-07-27T07:43:13.953Z,23.46
2022-07-27T07:45:51.615Z,21.35
2022-07-27T07:48:21.832Z,19.92
2022-07-27T07:50:53.254Z,18.76
2022-07-27T07:53:24.990Z,17.62
2022-07-27T07:55:56.179Z,16.71
2022-07-27T07:58:24.077Z,16.46
2022-07-27T08:00:51.845Z,15.82
2022-07-27T08:03:20.185Z,15.23
2022-07-27T08:05:48.386Z,15.64
2022-07-27T08:08:17.086Z,15.00
2022-07-27T08:10:45.224Z,14.76
2022-07-27T08:13:15.858Z,14.75
2022-07-27T08:15:46.939Z,14.53
2022-07-27T08:18:14.890Z,14.49
2022-07-27T08:20:42.618Z,14.63
2022-07-27T08:23:13.169Z,13.93
2022-07-27T08:25:41.067Z,14.16
2022-07-27T08:28:08.957Z,13.70
2022-07-27T08:30:37.457Z,14.19
2022-07-27T08:33:07.666Z,13.62
2022-07-27T08:35:36.785Z,13.25
2022-07-27T08:38:09.388Z,13.52
2022-07-27T08:40:41.899Z,13.94
2022-07-27T08:43:13.031Z,13.79
2022-07-27T08:45:41.938Z,14.01
2022-07-27T08:48:14.232Z,13.65
2022-07-27T08:50:43.229Z,13.48
2022-07-27T08:53:13.498Z,13.96
2022-07-27T08:55:46.651Z,13.61
2022-07-27T08:58:15.801Z,13.60
2022-07-27T09:00:50.188Z,13.99
2022-07-27T09:03:21.621Z,13.96
2022-07-27T09:05:53.041Z,14.81
2022-07-27T09:08:30.381Z,15.33
2022-07-27T09:11:00.373Z,14.69
2022-07-27T09:13:32.602Z,14.33
2022-07-27T09:16:17.648Z,14.68
2022-07-27T09:18:48.030Z,15.17
2022-07-27T09:21:21.256Z,15.49
2022-07-27T09:24:29.310Z,15.57
2022-07-27T09:27:03.698Z,15.06
2022-07-27T09:29:35.694Z,15.17
2022-07-27T09:32:15.757Z,14.73
2022-07-27T09:34:44.653Z,14.56
2022-07-27T09:37:23.003Z,15.76
2022-07-27T09:39:51.052Z,17.53
2022-07-27T09:43:05.713Z,18.35
2022-07-27T09:45:32.696Z,18.22
2022-07-27T09:48:19.169Z,17.29
2022-07-27T09:51:02.151Z,18.65
2022-07-27T09:53:42.824Z,19.04
2022-07-27T09:56:14.698Z,18.57
2022-07-27T09:58:56.725Z,18.35
2022-07-27T10:01:34.984Z,17.77
2022-07-27T10:04:05.610Z,17.87
2022-07-27T10:06:53.502Z,19.46
2022-07-27T10:09:22.045Z,20.80
2022-07-27T10:11:50.192Z,21.74
2022-07-27T10:14:18.259Z,22.88
2022-07-27T10:16:50.955Z,22.17
2022-07-27T10:19:41.394Z,22.11
2022-07-27T10:22:09.262Z,23.49
2022-07-27T10:24:37.468Z,24.52
2022-07-27T10:27:28.408Z,25.34
2022-07-27T10:29:58.508Z,26.26
2022-07-27T10:32:34.289Z,27.73
2022-07-27T10:35:02.493Z,28.31
2022-07-27T10:37:34.886Z,28.14
2022-07-27T10:40:25.215Z,28.58
2022-07-27T10:43:11.673Z,28.99
2022-07-27T10:46:00.207Z,29.02
2022-07-27T10:48:45.918Z,29.24
2022-07-27T10:51:17.549Z,29.11
2022-07-27T10:54:11.477Z,29.88
2022-07-27T10:56:47.671Z,30.14
2022-07-27T10:59:15.652Z,30.11
2022-07-27T11:01:59.386Z,29.91
2022-07-27T11:04:27.331Z,30.20
2022-07-27T11:07:24.030Z,30.60
2022-07-27T11:10:07.635Z,30.62
2022-07-27T11:12:38.142Z,31.20
2022-07-27T11:15:07.620Z,31.37
2022-07-27T11:20:24.416Z,32.45
2022-07-27T11:23:40.794Z,33.10
2022-07-27T11:25:41.058Z,33.44
2022-07-27T11:28:08.815Z,33.60
2022-07-27T11:30:37.263Z,34.06
2022-07-27T11:33:05.918Z,34.17
2022-07-27T11:35:33.848Z,33.82
2022-07-27T11:38:06.589Z,33.96
2022-07-27T11:43:42.634Z,33.54
2022-07-27T11:46:14.999Z,33.48
2022-07-27T11:49:17.491Z,33.77
2022-07-27T11:51:48.600Z,33.75
2022-07-27T11:54:28.462Z,34.04
2022-07-27T11:57:04.726Z,33.34
2022-07-27T11:59:34.626Z,33.23
2022-07-27T12:02:23.022Z,33.64
2022-07-27T12:04:53.587Z,33.90
2022-07-27T12:07:33.783Z,33.76
2022-07-27T12:10:07.087Z,34.19
2022-07-27T12:12:36.789Z,34.16
2022-07-27T12:18:06.948Z,34.07
2022-07-27T12:20:36.662Z,34.95
2022-07-27T12:23:07.788Z,34.88
2022-07-27T12:25:36.607Z,34.72
2022-07-27T12:28:08.875Z,34.47
2022-07-27T12:30:45.886Z,34.36
2022-07-27T12:33:31.085Z,34.16
2022-07-27T12:36:01.134Z,34.92
2022-07-27T12:38:40.528Z,34.89
2022-07-27T12:41:08.504Z,34.86
2022-07-27T12:43:36.842Z,34.78
2022-07-27T12:46:14.412Z,34.90
2022-07-27T12:48:43.552Z,34.90
2022-07-27T12:51:11.638Z,34.31
2022-07-27T12:53:39.835Z,34.32
2022-07-27T12:56:10.222Z,35.02
2022-07-27T12:58:38.000Z,35.31
2022-07-27T13:01:06.232Z,34.88
2022-07-27T13:03:36.896Z,35.10
2022-07-27T13:06:09.259Z,34.79
2022-07-27T13:08:41.082Z,34.71
2022-07-27T13:11:08.909Z,34.87
2022-07-27T13:13:36.744Z,35.29
2022-07-27T13:16:05.057Z,35.07
2022-07-27T13:18:32.967Z,34.72
2022-07-27T13:21:00.762Z,34.15
2022-07-27T13:23:29.584Z,34.32
2022-07-27T13:25:57.413Z,34.11
2022-07-27T13:28:25.135Z,34.15
2022-07-27T13:30:53.417Z,34.35
2022-07-27T13:33:21.146Z,33.77
2022-07-27T13:35:58.988Z,33.47
2022-07-27T13:38:28.734Z,33.17
2022-07-27T13:40:56.731Z,32.77
2022-07-27T13:43:24.518Z,33.75
2022-07-27T13:45:52.474Z,33.81
2022-07-27T13:48:20.343Z,33.97
2022-07-27T13:50:48.101Z,34.71
2022-07-27T13:53:17.393Z,34.83
2022-07-27T13:55:45.570Z,35.27
2022-07-27T13:58:13.612Z,35.41
2022-07-27T14:00:41.735Z,35.69
2022-07-27T14:03:11.228Z,35.70
2022-07-27T14:05:45.404Z,35.56
2022-07-27T14:08:18.416Z,34.82
2022-07-27T14:10:46.169Z,34.34
2022-07-27T14:13:15.843Z,34.65
2022-07-27T14:15:52.857Z,34.78
2022-07-27T14:18:25.380Z,35.24
2022-07-27T14:20:54.414Z,35.05
2022-07-27T14:23:22.860Z,35.17
2022-07-27T14:25:50.798Z,34.88
2022-07-27T14:28:19.198Z,34.86
2022-07-27T14:30:47.981Z,34.26
2022-07-27T14:33:16.604Z,33.95
2022-07-27T14:35:45.478Z,33.99
2022-07-27T14:38:14.192Z,33.64
2022-07-27T14:40:54.286Z,33.52
2022-07-27T14:43:23.288Z,34.07
2022-07-27T14:45:51.215Z,34.05
2022-07-27T14:48:32.157Z,34.04
2022-07-27T14:51:04.900Z,33.88
2022-07-27T14:53:32.885Z,33.96
2022-07-27T14:56:00.579Z,34.47
2022-07-27T14:58:28.459Z,35.11
2022-07-27T15:00:56.427Z,35.16
2022-07-27T15:03:24.443Z,35.21
2022-07-27T15:05:52.423Z,35.05
2022-07-27T15:08:20.952Z,35.37
2022-07-27T15:10:49.301Z,35.58
2022-07-27T15:13:18.062Z,36.17
2022-07-27T15:15:48.601Z,36.80
2022-07-27T15:18:19.382Z,36.84
2022-07-27T15:20:50.762Z,37.06
2022-07-27T15:23:18.515Z,36.89
2022-07-27T15:25:46.255Z,36.85
2022-07-27T15:28:16.127Z,36.26
2022-07-27T15:30:43.807Z,36.56
2022-07-27T15:33:11.476Z,36.97
2022-07-27T15:35:39.336Z,37.63
2022-07-27T15:38:07.458Z,38.11
2022-07-27T15:40:38.165Z,38.66
2022-07-27T15:43:12.148Z,38.81
2022-07-27T15:45:48.294Z,39.44
2022-07-27T15:48:17.929Z,39.21
2022-07-27T15:50:49.267Z,39.39
2022-07-27T15:53:19.328Z,39.32
2022-07-27T15:55:48.058Z,39.22
2022-07-27T15:58:19.493Z,39.04
2022-07-27T16:00:50.142Z,39.14
2022-07-27T16:03:18.798Z,39.04
2022-07-27T16:05:49.923Z,39.21
2022-07-27T16:08:19.231Z,39.05
2022-07-27T16:10:48.909Z,39.39
2022-07-27T16:13:17.204Z,39.28
2022-07-27T16:16:04.101Z,39.31
2022-07-27T16:18:38.311Z,39.44
2022-07-27T16:21:07.744Z,39.56
2022-07-27T16:23:35.864Z,40.00
2022-07-27T16:26:05.751Z,39.96
2022-07-27T16:28:42.427Z,40.42
2022-07-27T16:31:13.829Z,40.15
2022-07-27T16:33:44.374Z,39.87
2022-07-27T16:36:13.062Z,39.71
2022-07-27T16:38:49.531Z,39.69
2022-07-27T16:41:22.531Z,40.27
2022-07-27T16:43:50.961Z,40.50
2022-07-27T16:46:19.060Z,40.34
2022-07-27T16:48:47.988Z,40.93
2022-07-27T16:51:16.223Z,41.15
2022-07-27T16:53:48.565Z,41.69
2022-07-27T16:56:17.110Z,42.09
2022-07-27T16:58:45.452Z,41.96
2022-07-27T17:01:22.347Z,41.99
2022-07-27T17:03:56.757Z,41.63
2022-07-27T17:06:26.214Z,41.49
2022-07-27T17:08:54.643Z,42.01
2022-07-27T17:11:23.461Z,42.30
2022-07-27T17:13:59.194Z,42.50
2022-07-27T17:16:28.787Z,43.13
2022-07-27T17:18:56.866Z,43.24
2022-07-27T17:21:25.161Z,43.79
2022-07-27T17:23:53.200Z,44.18
2022-07-27T17:26:22.830Z,44.19
2022-07-27T17:28:53.215Z,44.45
2022-07-27T17:31:21.421Z,44.67
2022-07-27T17:33:50.283Z,44.90
2022-07-27T17:36:18.566Z,44.67
2022-07-27T17:38:47.451Z,44.84
2022-07-27T17:41:23.525Z,44.64
2022-07-27T17:43:52.850Z,45.01
2022-07-27T17:46:21.213Z,45.34
2022-07-27T17:48:49.027Z,45.73
2022-07-27T17:51:17.490Z,45.81
2022-07-27T17:53:45.568Z,46.56
2022-07-27T17:56:13.431Z,47.05
2022-07-27T17:58:42.953Z,47.51
2022-07-27T18:01:10.760Z,48.01
2022-07-27T18:03:38.569Z,48.23
2022-07-27T18:06:07.015Z,48.51
2022-07-27T18:08:36.198Z,48.95
2022-07-27T18:11:04.123Z,49.57
2022-07-27T18:13:38.894Z,49.87
2022-07-27T18:16:12.097Z,50.35
2022-07-27T18:18:42.148Z,50.24
2022-07-27T18:21:10.711Z,50.58
2022-07-27T18:23:39.291Z,51.06
2022-07-27T18:26:07.508Z,51.42
2022-07-27T18:28:39.533Z,51.96
2022-07-27T18:31:09.989Z,52.15
2022-07-27T18:33:40.402Z,52.04
2022-07-27T18:36:08.514Z,51.86
2022-07-27T18:38:36.693Z,52.60
2022-07-27T18:41:04.599Z,52.81
2022-07-27T18:43:32.349Z,52.98
2022-07-27T18:46:00.678Z,53.06
2022-07-27T18:48:28.913Z,53.41
2022-07-27T18:50:57.061Z,53.91
2022-07-27T18:53:25.035Z,54.40
2022-07-27T18:55:56.308Z,54.82
2022-07-27T18:58:24.947Z,55.15
2022-07-27T19:00:54.823Z,55.93
2022-07-27T19:03:22.763Z,56.74
2022-07-27T19:05:53.151Z,57.24
2022-07-27T19:08:22.045Z,58.02
2022-07-27T19:10:51.169Z,58.66
2022-07-27T19:13:18.985Z,58.75
2022-07-27T19:15:46.883Z,59.45
2022-07-27T19:18:14.620Z,60.05
2022-07-27T19:20:42.584Z,60.69
2022-07-27T19:23:10.553Z,61.01
2022-07-27T19:25:38.336Z,61.33
2022-07-27T19:28:06.405Z,62.20
2022-07-27T19:30:34.511Z,63.14
2022-07-27T19:33:02.439Z,63.88
2022-07-27T19:35:30.129Z,64.30
2022-07-27T19:37:58.116Z,64.66
2022-07-27T19:43:15.252Z,66.03
2022-07-27T19:45:43.598Z,66.53
2022-07-27T19:48:11.877Z,66.93
2022-07-27T19:50:40.022Z,67.47
2022-07-27T19:53:08.124Z,68.03
2022-07-27T19:55:35.917Z,69.33
2022-07-27T19:58:03.889Z,69.85
2022-07-27T20:00:32.108Z,70.68
2022-07-27T20:02:59.905Z,71.20
2022-07-27T20:05:28.056Z,71.54
2022-07-27T20:07:55.870Z,72.05
2022-07-27T20:10:25.329Z,72.77
2022-07-27T20:12:53.625Z,73.56
2022-07-27T20:15:22.517Z,74.17
2022-07-27T20:17:50.731Z,74.61
2022-07-27T20:20:19.090Z,75.03
2022-07-27T20:22:46.863Z,75.57
2022-07-27T20:25:15.108Z,75.13
2022-07-27T20:27:43.228Z,74.10
2022-07-27T20:30:14.463Z,72.41
2022-07-27T20:32:42.512Z,69.30
2022-07-27T20:35:11.283Z,66.97
2022-07-27T20:37:39.306Z,65.49
2022-07-27T20:40:07.656Z,64.54
2022-07-27T20:42:35.638Z,63.46
2022-07-27T20:45:11.155Z,63.15
2022-07-27T20:47:39.849Z,62.75
2022-07-27T20:50:10.334Z,62.50
2022-07-27T20:52:39.479Z,62.32
2022-07-27T20:55:09.063Z,62.29
2022-07-27T20:57:37.156Z,62.23
2022-07-27T21:00:07.234Z,62.20
2022-07-27T21:02:35.348Z,62.02
2022-07-27T21:05:03.811Z,62.07
2022-07-27T21:07:31.616Z,61.87
2022-07-27T21:10:00.028Z,62.09
2022-07-27T21:12:27.863Z,62.15
2022-07-27T21:14:55.726Z,62.26
2022-07-27T21:17:23.835Z,62.53
2022-07-27T21:19:53.381Z,62.47
2022-07-27T21:22:21.184Z,62.14
2022-07-27T21:24:49.751Z,61.95
2022-07-27T21:27:20.929Z,62.15
2022-07-27T21:29:49.413Z,62.12
2022-07-27T21:32:18.206Z,61.86
2022-07-27T21:34:45.940Z,61.91
2022-07-27T21:37:13.759Z,61.83
2022-07-27T21:39:41.749Z,61.52
2022-07-27T21:42:09.522Z,61.53
2022-07-27T21:44:37.504Z,61.06
2022-07-27T21:47:13.151Z,61.25
2022-07-27T21:49:41.632Z,61.22
2022-07-27T21:52:11.228Z,61.23
2022-07-27T21:54:39.522Z,60.90
2022-07-27T21:57:07.213Z,60.94
2022-07-27T21:59:35.182Z,60.66
2022-07-27T22:02:03.002Z,60.52
2022-07-27T22:04:30.844Z,60.36
2022-07-27T22:06:58.848Z,60.15
2022-07-27T22:09:26.621Z,60.10
2022-07-27T22:11:54.378Z,60.01
2022-07-27T22:14:24.518Z,60.17
2022-07-27T22:16:53.081Z,60.14
2022-07-27T22:19:20.953Z,59.91
2022-07-27T22:21:48.966Z,60.05
2022-07-27T22:24:17.528Z,60.12
2022-07-27T22:26:45.389Z,60.32
2022-07-27T22:29:13.278Z,60.38
2022-07-27T22:31:41.113Z,60.99
2022-07-27T22:34:08.903Z,61.13
2022-07-27T22:36:36.865Z,61.28
2022-07-27T22:39:04.564Z,61.37
2022-07-27T22:41:32.395Z,61.59
2022-07-27T22:44:00.318Z,61.73
2022-07-27T22:46:32.386Z,62.14
2022-07-27T22:49:00.175Z,62.22
2022-07-27T22:51:49.534Z,62.64
2022-07-27T22:54:16.889Z,62.97
2022-07-27T22:56:45.840Z,62.92
2022-07-27T22:59:13.590Z,63.20
2022-07-27T23:01:47.569Z,63.31
2022-07-27T23:04:17.180Z,63.63
2022-07-27T23:06:46.295Z,64.19
2022-07-27T23:09:14.935Z,64.56
2022-07-27T23:11:44.229Z,64.92
2022-07-27T23:14:13.074Z,65.44
2022-07-27T23:16:41.217Z,65.71
2022-07-27T23:19:09.576Z,65.80
2022-07-27T23:21:37.604Z,66.29
2022-07-27T23:24:06.162Z,66.57
2022-07-27T23:26:34.042Z,67.02
2022-07-27T23:29:02.173Z,67.34
2022-07-27T23:31:30.045Z,67.69
2022-07-27T23:33:58.143Z,67.75
2022-07-27T23:36:25.899Z,68.16
2022-07-27T23:38:53.598Z,68.54
2022-07-27T23:41:21.656Z,68.86
2022-07-27T23:43:49.357Z,68.99
2022-07-27T23:46:17.074Z,68.78
2022-07-27T23:48:45.236Z,68.95
2022-07-27T23:51:19.807Z,69.13
2022-07-27T23:53:48.451Z,69.04
2022-07-27T23:56:16.159Z,69.18
2022-07-27T23:58:44.951Z,69.27
